Time;durP1;ratioP1;P1;durP2;ratioP2;P2;SDS_P1;SDS_P2;PMS_P1;PMS_P2;Temp;Humidity;BMP_temperature;BMP_pressure;BME280_temperature;BME280_humidity;BME280_pressure;Samples;Min_cycle;Max_cycle;Signal;HPM_P1;HPM_P2
2023/10/01 00:01:56;;;;;;;;;;;;;;;20.56;42.40;99563.03;5085865;28;19924;-75
2023/10/01 00:04:21;;;;;;;;;;;;;;;20.57;42.29;99562.63;5079243;28;19923;-76
2023/10/01 00:06:47;;;;;;;;;;;;;;;20.57;42.07;99556.97;5073591;28;19949;-75
2023/10/01 00:09:19;;;;;;;;;;;;;;;20.59;42.04;99553.72;5071548;28;20410;-75
2023/10/01 00:11:44;;;;;;;;;;;;;;;20.53;42.07;99552.47;5071749;28;19924;-75
2023/10/01 00:14:11;;;;;;;;;;;;;;;20.54;41.95;99549.25;5071507;28;19913;-75
2023/10/01 00:16:37;;;;;;;;;;;;;;;20.62;41.92;99545.19;5077152;28;19916;-75
2023/10/01 00:19:03;;;;;;;;;;;;;;;20.61;41.82;99539.94;5081431;28;20415;-75
2023/10/01 00:21:28;;;;;;;;;;;;;;;20.52;42.03;99539.50;5083765;28;19927;-76
2023/10/01 00:23:54;;;;;;;;;;;;;;;20.54;41.87;99537.06;5070204;28;19912;-75
2023/10/01 00:26:19;;;;;;;;;;;;;;;20.38;42.15;99546.75;5071455;28;20322;-75
2023/10/01 00:28:45;;;;;;;;;;;;;;;20.38;42.33;99543.09;5083906;28;20438;-75
2023/10/01 00:31:11;;;;;;;;;;;;;;;20.33;42.30;99538.59;5089278;28;19916;-75
2023/10/01 00:33:36;;;;;;;;;;;;;;;20.06;42.02;99541.75;5091555;28;19919;-76
2023/10/01 00:36:03;;;;;;;;;;;;;;;20.03;42.47;99534.03;5091698;28;20332;-75
2023/10/01 00:38:28;;;;;;;;;;;;;;;20.18;42.29;99534.91;5091267;28;19977;-75
2023/10/01 00:40:54;;;;;;;;;;;;;;;20.20;42.29;99536.13;5084401;28;19916;-76
2023/10/01 00:43:25;;;;;;;;;;;;;;;20.15;42.22;99533.69;5069908;28;19923;-75
2023/10/01 00:45:52;;;;;;;;;;;;;;;20.06;42.44;99534.06;5081824;28;20377;-76
2023/10/01 00:48:18;;;;;;;;;;;;;;;19.96;42.72;99534.81;5082565;28;20016;-75
2023/10/01 00:50:44;;;;;;;;;;;;;;;19.83;43.05;99519.31;5072451;28;19987;-76
2023/10/01 00:53:10;;;;;;;;;;;;;;;19.81;43.39;99516.88;5074921;28;20003;-76
2023/10/01 00:55:37;;;;;;;;;;;;;;;19.89;43.02;99526.22;5082472;28;20006;-76
2023/10/01 00:58:03;;;;;;;;;;;;;;;19.84;43.17;99521.75;5093920;28;19912;-76
2023/10/01 01:00:28;;;;;;;;;;;;;;;19.70;43.52;99528.16;5094205;28;19930;-76
2023/10/01 01:03:07;;;;;;;;;;;;;;;19.66;43.93;99523.69;5088667;28;20013;-76
2023/10/01 01:05:37;;;;;;;;;;;;;;;19.72;43.82;99522.91;5085677;28;20058;-76
2023/10/01 01:08:21;;;;;;;;;;;;;;;19.60;44.19;99509.84;5095015;28;19916;-76
2023/10/01 01:10:48;;;;;;;;;;;;;;;19.44;44.55;99518.69;5090937;28;19928;-75
2023/10/01 01:13:16;;;;;;;;;;;;;;;19.45;44.78;99508.97;5092312;28;19920;-76
2023/10/01 01:15:45;;;;;;;;;;;;;;;19.38;45.16;99513.78;5093744;28;19969;-76
2023/10/01 01:18:13;;;;;;;;;;;;;;;19.35;45.04;99515.38;5093624;28;19919;-75
2023/10/01 01:20:43;;;;;;;;;;;;;;;19.30;45.23;99518.56;5090358;28;19925;-76
2023/10/01 01:23:14;;;;;;;;;;;;;;;19.22;45.29;99512.84;5074553;28;19916;-75
2023/10/01 01:25:39;;;;;;;;;;;;;;;19.32;45.37;99516.16;5083948;28;19962;-76
2023/10/01 01:28:12;;;;;;;;;;;;;;;19.39;45.14;99516.19;5094754;28;19920;-75
2023/10/01 01:30:41;;;;;;;;;;;;;;;19.52;44.93;99513.88;5093407;28;19918;-76
2023/10/01 01:33:07;;;;;;;;;;;;;;;19.60;44.69;99517.56;5093847;28;19946;-76
2023/10/01 01:35:35;;;;;;;;;;;;;;;19.46;44.96;99512.59;5089663;28;19919;-76
2023/10/01 01:38:01;;;;;;;;;;;;;;;19.49;44.96;99509.78;5090935;28;19922;-76
2023/10/01 01:40:31;;;;;;;;;;;;;;;19.58;44.83;99517.16;5094193;28;19916;-76
2023/10/01 01:42:57;;;;;;;;;;;;;;;19.47;45.02;99511.38;5094501;28;19912;-76
2023/10/01 01:45:27;;;;;;;;;;;;;;;19.57;44.69;99515.53;5094363;28;19912;-76
2023/10/01 01:47:53;;;;;;;;;;;;;;;19.52;44.84;99521.56;5082162;28;19971;-76
2023/10/01 01:50:18;;;;;;;;;;;;;;;19.73;44.56;99523.69;5079926;28;19921;-76
2023/10/01 01:52:49;;;;;;;;;;;;;;;19.70;44.50;99528.16;5094222;28;19916;-76
2023/10/01 01:55:26;;;;;;;;;;;;;;;19.59;45.02;99521.59;5092533;28;19965;-75
2023/10/01 02:00:37;;;;;;;;;;;;;;;19.59;44.71;99519.56;5093902;28;20394;-75
2023/10/01 02:03:10;;;;;;;;;;;;;;;19.55;45.06;99518.75;5092320;28;19916;-75
2023/10/01 02:05:36;;;;;;;;;;;;;;;19.62;44.83;99523.66;5092648;28;19919;-75
2023/10/01 02:08:09;;;;;;;;;;;;;;;19.59;44.79;99521.59;5091916;28;20452;-76
2023/10/01 02:10:44;;;;;;;;;;;;;;;19.62;44.88;99521.63;5093820;28;19916;-75
2023/10/01 02:13:11;;;;;;;;;;;;;;;19.59;44.80;99513.09;5093851;28;20343;-76
2023/10/01 02:15:37;;;;;;;;;;;;;;;19.61;44.96;99524.84;5088564;28;19913;-75
2023/10/01 02:18:03;;;;;;;;;;;;;;;19.60;44.90;99515.53;5077930;28;20003;-76
2023/10/01 02:20:32;;;;;;;;;;;;;;;19.75;44.48;99522.09;5092006;28;20041;-75
2023/10/01 02:22:58;;;;;;;;;;;;;;;19.76;44.08;99520.88;5073522;28;19997;-76
2023/10/01 02:25:36;;;;;;;;;;;;;;;19.78;43.91;99523.34;5076616;28;20402;-75
2023/10/01 02:28:13;;;;;;;;;;;;;;;19.80;43.58;99522.97;5093443;28;19920;-76
2023/10/01 02:30:42;;;;;;;;;;;;;;;19.82;43.65;99520.53;5092618;28;19916;-76
2023/10/01 02:33:17;;;;;;;;;;;;;;;19.80;43.82;99520.13;5093150;28;20321;-76
2023/10/01 02:35:42;;;;;;;;;;;;;;;19.61;44.29;99517.19;5093326;28;19912;-76
2023/10/01 02:38:55;;;;;;;;;;;;;;;19.69;44.22;99517.19;5093524;28;20430;-76
2023/10/01 02:41:01;;;;;;;;;;;;;;;19.44;44.79;99504.50;5092712;28;19916;-76
2023/10/01 02:43:33;;;;;;;;;;;;;;;19.52;44.58;99507.38;5091446;28;19912;-76
2023/10/01 02:45:59;;;;;;;;;;;;;;;19.50;44.60;99511.41;5086165;28;19927;-76
2023/10/01 02:48:26;;;;;;;;;;;;;;;19.59;44.58;99507.44;5089704;28;19913;-76
2023/10/01 02:50:54;;;;;;;;;;;;;;;19.66;44.27;99518.81;5093056;28;20386;-76
2023/10/01 02:53:21;;;;;;;;;;;;;;;19.66;44.05;99506.66;5093116;28;19912;-76
2023/10/01 02:55:47;;;;;;;;;;;;;;;19.59;44.23;99507.44;5093033;28;19923;-76
2023/10/01 02:58:28;;;;;;;;;;;;;;;19.69;44.17;99506.69;5090313;28;19912;-76
2023/10/01 03:00:54;;;;;;;;;;;;;;;19.69;44.23;99503.00;5079781;28;19928;-76
2023/10/01 03:03:31;;;;;;;;;;;;;;;19.74;44.30;99499.81;5077471;28;19920;-76
2023/10/01 03:05:56;;;;;;;;;;;;;;;19.64;44.97;99512.72;5071151;28;19913;-76
2023/10/01 03:11:05;;;;;;;;;;;;;;;19.72;45.23;99513.56;5088328;28;19923;-76
2023/10/01 03:13:32;;;;;;;;;;;;;;;19.72;45.42;99511.56;5080509;28;20481;-75
2023/10/01 03:18:44;;;;;;;;;;;;;;;19.59;45.51;99504.59;5080712;28;19922;-74
2023/10/01 03:21:36;;;;;;;;;;;;;;;19.69;45.09;99505.84;5077445;28;19916;-75
2023/10/01 03:24:00;;;;;;;;;;;;;;;19.57;45.01;99507.81;5073222;28;19916;-74
2023/10/01 03:26:26;;;;;;;;;;;;;;;19.60;44.92;99509.06;5074043;28;19967;-74
2023/10/01 03:31:37;;;;;;;;;;;;;;;19.47;45.99;99509.38;5092229;28;20307;-72
2023/10/01 03:34:04;;;;;;;;;;;;;;;19.61;45.80;99516.34;5091300;28;20345;-72
2023/10/01 03:36:32;;;;;;;;;;;;;;;19.57;45.82;99513.47;5090615;28;19920;-72
2023/10/01 03:39:25;;;;;;;;;;;;;;;19.55;45.56;99513.06;5086168;28;19916;-72
2023/10/01 03:41:52;;;;;;;;;;;;;;;19.52;45.63;99524.38;5071726;28;19912;-72
2023/10/01 03:44:40;;;;;;;;;;;;;;;19.47;45.59;99520.72;5089477;28;20401;-72
2023/10/01 03:47:04;;;;;;;;;;;;;;;19.49;45.76;99521.13;5089597;28;20383;-72
2023/10/01 03:49:44;;;;;;;;;;;;;;;19.60;45.66;99518.34;5087222;28;20583;-72
2023/10/01 03:52:09;;;;;;;;;;;;;;;19.50;46.20;99510.63;5082747;28;19920;-72
2023/10/01 03:57:19;;;;;;;;;;;;;;;19.51;46.00;99517.91;5092206;28;20414;-72
2023/10/01 03:59:53;;;;;;;;;;;;;;;19.54;46.00;99519.13;5091031;28;19912;-72
2023/10/01 04:05:21;;;;;;;;;;;;;;;19.49;46.35;99523.19;5084015;28;19919;-72
2023/10/01 04:07:47;;;;;;;;;;;;;;;19.35;46.62;99526.72;5092050;28;19920;-72
2023/10/01 04:10:21;;;;;;;;;;;;;;;19.38;46.75;99534.44;5112121;28;20335;-72
2023/10/01 04:12:58;;;;;;;;;;;;;;;19.40;46.60;99534.84;5112064;28;19912;-72
2023/10/01 04:15:28;;;;;;;;;;;;;;;19.49;46.38;99531.69;5092451;28;19950;-72
2023/10/01 04:18:09;;;;;;;;;;;;;;;19.58;46.54;99529.28;5081693;28;19966;-72
2023/10/01 04:20:36;;;;;;;;;;;;;;;19.49;46.66;99538.16;5078037;28;19998;-72
2023/10/01 04:23:04;;;;;;;;;;;;;;;19.43;46.75;99538.91;5087706;28;20318;-72
2023/10/01 04:25:39;;;;;;;;;;;;;;;19.46;46.93;99540.97;5091534;28;19916;-72
2023/10/01 04:28:08;;;;;;;;;;;;;;;19.44;46.71;99543.38;5094965;28;19977;-73
2023/10/01 04:30:36;;;;;;;;;;;;;;;19.54;46.75;99550.34;5094533;28;20003;-72
2023/10/01 04:33:17;;;;;;;;;;;;;;;19.42;46.89;99552.28;5093087;28;19960;-72
2023/10/01 04:35:51;;;;;;;;;;;;;;;19.49;47.01;99541.00;5075515;28;19958;-70
2023/10/01 04:38:20;;;;;;;;;;;;;;;19.29;47.68;99550.97;5075384;28;19942;-71
2023/10/01 04:40:48;;;;;;;;;;;;;;;19.32;47.49;99555.88;5075407;28;20306;-72
2023/10/01 04:43:16;;;;;;;;;;;;;;;19.29;47.91;99556.63;5084372;28;19939;-73
2023/10/01 04:45:44;;;;;;;;;;;;;;;19.19;47.99;99561.84;5095570;28;20347;-73
2023/10/01 04:48:16;;;;;;;;;;;;;;;19.30;47.76;99559.09;5094519;28;19924;-73
2023/10/01 04:50:45;;;;;;;;;;;;;;;19.24;48.03;99557.81;5095438;28;19955;-73
2023/10/01 04:53:13;;;;;;;;;;;;;;;19.22;48.07;99558.22;5086118;28;19927;-73
2023/10/01 04:55:42;;;;;;;;;;;;;;;19.18;48.37;99560.19;5075071;28;19916;-73
2023/10/01 04:58:08;;;;;;;;;;;;;;;19.24;47.86;99560.63;5079078;28;19923;-73
2023/10/01 05:00:34;;;;;;;;;;;;;;;19.25;48.47;99564.31;5093189;28;19919;-73
2023/10/01 05:02:59;;;;;;;;;;;;;;;19.34;47.77;99559.91;5094205;28;19981;-73
2023/10/01 05:05:27;;;;;;;;;;;;;;;19.40;47.70;99562.41;5093621;28;19916;-73
2023/10/01 05:07:56;;;;;;;;;;;;;;;19.37;47.83;99569.66;5094740;28;19916;-73
2023/10/01 05:10:22;;;;;;;;;;;;;;;19.43;47.63;99564.44;5091249;28;20322;-73
2023/10/01 05:12:54;;;;;;;;;;;;;;;19.44;47.51;99566.06;5086356;28;19925;-73
2023/10/01 05:15:26;;;;;;;;;;;;;;;19.56;47.17;99570.63;5083050;28;20542;-73
2023/10/01 05:17:55;;;;;;;;;;;;;;;19.47;47.61;99574.63;5085890;28;19916;-73
2023/10/01 05:20:20;;;;;;;;;;;;;;;19.42;47.51;99577.78;5085950;28;19916;-73
2023/10/01 05:22:51;;;;;;;;;;;;;;;19.40;47.46;99574.53;5088239;28;19924;-73
2023/10/01 05:25:18;;;;;;;;;;;;;;;19.42;47.56;99577.78;5087862;28;19916;-73
2023/10/01 05:27:44;;;;;;;;;;;;;;;19.30;48.33;99578.94;5092044;28;19927;-73
2023/10/01 05:30:34;;;;;;;;;;;;;;;19.24;48.31;99580.47;5077824;28;19921;-73
2023/10/01 05:32:55;;;;;;;;;;;;;;;19.28;48.24;99581.34;5082341;28;19976;-73
2023/10/01 05:35:22;;;;;;;;;;;;;;;19.21;48.37;99582.09;5092989;28;19916;-73
2023/10/01 05:37:49;;;;;;;;;;;;;;;19.34;48.16;99582.59;5092251;28;19923;-73
2023/10/01 05:40:15;;;;;;;;;;;;;;;19.33;47.89;99588.69;5078919;28;19917;-73
2023/10/01 05:42:41;;;;;;;;;;;;;;;19.39;47.93;99587.09;5091588;28;19923;-73
2023/10/01 05:45:18;;;;;;;;;;;;;;;19.37;47.87;99592.34;5089562;28;20327;-72
2023/10/01 05:47:54;;;;;;;;;;;;;;;19.43;48.02;99595.63;5090336;28;19920;-73
2023/10/01 05:50:22;;;;;;;;;;;;;;;19.58;47.76;99600.22;5074096;28;19917;-73
2023/10/01 05:52:47;;;;;;;;;;;;;;;19.55;47.39;99603.00;5073602;28;20370;-73
2023/10/01 05:55:15;;;;;;;;;;;;;;;19.55;47.32;99598.16;5086318;28;20014;-72
2023/10/01 05:57:41;;;;;;;;;;;;;;;19.48;47.12;99604.59;5085513;28;19965;-73
2023/10/01 06:00:16;;;;;;;;;;;;;;;19.66;47.29;99600.28;5087018;28;19920;-73
2023/10/01 06:02:47;;;;;;;;;;;;;;;19.61;47.45;99601.47;5092524;28;19959;-72
2023/10/01 06:07:56;;;;;;;;;;;;;;;19.82;47.04;99600.78;5089052;28;20027;-73
2023/10/01 06:10:28;;;;;;;;;;;;;;;19.81;46.89;99601.19;5086981;28;20399;-72
2023/10/01 06:12:56;;;;;;;;;;;;;;;19.84;47.14;99597.56;5083584;28;19916;-71
2023/10/01 06:15:25;;;;;;;;;;;;;;;19.89;46.75;99589.50;5074327;28;19925;-73
2023/10/01 06:17:50;;;;;;;;;;;;;;;19.84;46.67;99603.25;5083024;28;19981;-73
2023/10/01 06:20:26;;;;;;;;;;;;;;;19.76;46.63;99603.19;5091729;28;19912;-72
2023/10/01 06:22:52;;;;;;;;;;;;;;;19.74;46.77;99599.13;5086784;28;19916;-66
2023/10/01 06:25:18;;;;;;;;;;;;;;;19.61;46.92;99607.13;5093284;28;20318;-67
2023/10/01 06:27:45;;;;;;;;;;;;;;;19.73;46.58;99609.66;5075350;28;20393;-69
2023/10/01 06:30:10;;;;;;;;;;;;;;;19.63;46.91;99622.56;5073328;28;20402;-66
2023/10/01 06:32:36;;;;;;;;;;;;;;;19.52;47.01;99620.81;5071603;28;19917;-68
2023/10/01 06:35:02;;;;;;;;;;;;;;;19.54;46.98;99621.25;5085081;28;19916;-67
2023/10/01 06:37:45;;;;;;;;;;;;;;;19.49;47.07;99622.44;5075620;28;20313;-67
2023/10/01 06:40:29;;;;;;;;;;;;;;;19.49;47.12;99623.25;5071074;28;19967;-68
2023/10/01 06:42:55;;;;;;;;;;;;;;;19.55;46.82;99620.88;5079562;28;19916;-68
2023/10/01 06:45:38;;;;;;;;;;;;;;;19.63;46.43;99621.72;5083813;28;19920;-67
2023/10/01 06:48:08;;;;;;;;;;;;;;;19.66;46.39;99626.59;5070837;28;19920;-68
2023/10/01 06:50:35;;;;;;;;;;;;;;;19.72;46.46;99636.41;5080692;28;20287;-68
2023/10/01 06:53:00;;;;;;;;;;;;;;;19.91;46.02;99628.84;5070291;28;19935;-69
2023/10/01 06:55:27;;;;;;;;;;;;;;;19.90;45.66;99624.34;5069359;28;19912;-67
2023/10/01 06:57:55;;;;;;;;;;;;;;;19.96;46.39;99627.66;5069900;28;20319;-68
2023/10/01 07:00:24;;;;;;;;;;;;;;;20.14;44.96;99627.75;5070415;28;20394;-67
2023/10/01 07:02:50;;;;;;;;;;;;;;;20.11;45.32;99637.91;5084648;28;19920;-68
2023/10/01 07:05:22;;;;;;;;;;;;;;;20.12;45.08;99639.53;5087507;28;19916;-69
2023/10/01 07:07:50;;;;;;;;;;;;;;;20.19;44.87;99635.94;5090120;28;20364;-68
2023/10/01 07:10:19;;;;;;;;;;;;;;;20.18;44.61;99635.09;5086713;28;19950;-69
2023/10/01 07:12:57;;;;;;;;;;;;;;;20.19;44.76;99636.72;5087732;28;19988;-68
2023/10/01 07:15:25;;;;;;;;;;;;;;;20.18;44.97;99635.09;5072038;28;19916;-69
2023/10/01 07:17:51;;;;;;;;;;;;;;;20.21;45.22;99639.19;5076653;28;20349;-69
2023/10/01 07:20:19;;;;;;;;;;;;;;;20.22;45.01;99640.81;5078044;28;19927;-69
2023/10/01 07:22:44;;;;;;;;;;;;;;;20.23;45.32;99636.75;5072182;28;19916;-68
2023/10/01 07:25:28;;;;;;;;;;;;;;;20.32;44.85;99642.06;5068469;28;20601;-69
2023/10/01 07:27:55;;;;;;;;;;;;;;;20.25;44.91;99644.88;5081785;28;19931;-68
2023/10/01 07:30:39;;;;;;;;;;;;;;;20.28;45.14;99641.25;5087012;28;20379;-67
2023/10/01 07:33:10;;;;;;;;;;;;;;;20.28;45.20;99646.91;5073524;28;19917;-67
2023/10/01 07:35:39;;;;;;;;;;;;;;;20.30;45.46;99642.47;5083771;28;20296;-69
2023/10/01 07:38:06;;;;;;;;;;;;;;;20.31;45.29;99646.94;5072890;28;20006;-67
2023/10/01 07:40:52;;;;;;;;;;;;;;;20.44;44.98;99657.97;5081202;28;20352;-68
2023/10/01 07:43:18;;;;;;;;;;;;;;;20.48;44.93;99655.94;5070888;28;19960;-68
2023/10/01 07:45:55;;;;;;;;;;;;;;;20.42;44.64;99641.31;5078089;28;19983;-68
2023/10/01 07:48:21;;;;;;;;;;;;;;;20.59;44.17;99662.50;5072171;28;19924;-69
2023/10/01 07:50:47;;;;;;;;;;;;;;;20.61;44.44;99662.91;5068596;28;20433;-69
2023/10/01 07:53:13;;;;;;;;;;;;;;;20.65;44.30;99667.81;5075560;28;19916;-69
2023/10/01 07:55:38;;;;;;;;;;;;;;;20.67;44.59;99662.53;5091897;28;19918;-68
2023/10/01 08:00:47;;;;;;;;;;;;;;;20.70;44.75;99664.56;5071993;28;19992;-69
2023/10/01 08:05:48;;;;;;;;;;;;;;;20.78;45.19;99669.06;5071726;28;19912;-69
2023/10/01 08:08:14;;;;;;;;;;;;;;;20.85;44.94;99669.09;5071636;28;19920;-69
2023/10/01 08:10:39;;;;;;;;;;;;;;;20.85;45.23;99676.84;5070280;28;19924;-68
2023/10/01 08:13:08;;;;;;;;;;;;;;;20.92;44.92;99676.06;5069233;28;19917;-69
2023/10/01 08:15:40;;;;;;;;;;;;;;;21.02;44.43;99681.75;5070229;28;19916;-69
2023/10/01 08:20:59;;;;;;;;;;;;;;;21.15;44.12;99685.06;5091280;28;20045;-68
2023/10/01 08:23:32;;;;;;;;;;;;;;;21.24;43.79;99684.66;5089363;28;20476;-73
2023/10/01 08:26:43;;;;;;;;;;;;;;;21.36;43.19;99683.47;5075620;28;19974;-74
2023/10/01 08:28:56;;;;;;;;;;;;;;;21.56;41.57;99692.44;5076948;28;19920;-74
2023/10/01 08:34:22;;;;;;;;;;;;;;;21.77;40.69;99684.34;5072230;28;19923;-74
2023/10/01 08:36:48;;;;;;;;;;;;;;;21.96;40.45;99689.63;5070225;28;20379;-74
2023/10/01 08:39:19;;;;;;;;;;;;;;;21.94;40.07;99689.19;5077571;28;19920;-73
2023/10/01 08:41:51;;;;;;;;;;;;;;;21.94;39.99;99689.19;5101568;28;19916;-71
2023/10/01 08:44:33;;;;;;;;;;;;;;;21.95;39.62;99682.28;5085092;28;19960;-75
2023/10/01 08:47:21;;;;;;;;;;;;;;;22.01;39.39;99683.50;5076729;28;20014;-73
2023/10/01 08:49:49;;;;;;;;;;;;;;;22.02;39.73;99679.44;5090537;28;20374;-74
2023/10/01 08:52:25;;;;;;;;;;;;;;;22.07;39.49;99681.06;5095231;28;19966;-74
2023/10/01 08:54:53;;;;;;;;;;;;;;;22.12;39.87;99683.47;5074378;28;20382;-73
2023/10/01 08:57:28;;;;;;;;;;;;;;;22.19;39.41;99684.72;5072706;28;19948;-73
2023/10/01 08:59:53;;;;;;;;;;;;;;;22.18;39.46;99681.03;5080314;28;19920;-73
2023/10/01 09:02:19;;;;;;;;;;;;;;;22.24;39.37;99685.09;5084427;28;19920;-73
2023/10/01 09:04:45;;;;;;;;;;;;;;;22.32;39.48;99685.06;5078400;28;20004;-74
2023/10/01 09:07:20;;;;;;;;;;;;;;;22.35;39.31;99684.28;5090425;28;20303;-74
2023/10/01 09:10:06;;;;;;;;;;;;;;;22.41;39.25;99682.59;5079088;28;20440;-74
2023/10/01 09:12:35;;;;;;;;;;;;;;;22.49;38.66;99680.56;5073044;28;20444;-74
2023/10/01 09:15:02;;;;;;;;;;;;;;;22.53;38.68;99684.25;5077789;28;19917;-74
2023/10/01 09:17:40;;;;;;;;;;;;;;;22.61;38.71;99680.13;5073455;28;19967;-74
2023/10/01 09:20:07;;;;;;;;;;;;;;;22.65;38.38;99669.53;5079057;28;20349;-74
2023/10/01 09:25:19;;;;;;;;;;;;;;;22.75;38.58;99681.31;5074808;28;19935;-73
2023/10/01 09:27:57;;;;;;;;;;;;;;;22.76;37.99;99668.69;5074409;28;19928;-74
2023/10/01 09:30:26;;;;;;;;;;;;;;;22.68;38.14;99674.41;5074432;28;19912;-74
2023/10/01 09:32:56;;;;;;;;;;;;;;;22.77;37.99;99671.09;5074523;28;20462;-73
2023/10/01 09:35:38;;;;;;;;;;;;;;;22.86;38.46;99671.47;5080591;28;20007;-73
2023/10/01 09:38:10;;;;;;;;;;;;;;;22.81;38.42;99674.78;5073444;28;19923;-74
2023/10/01 09:40:38;;;;;;;;;;;;;;;22.89;38.07;99669.03;5079883;28;19921;-74
2023/10/01 09:43:04;;;;;;;;;;;;;;;22.91;38.21;99667.38;5074359;28;19916;-74
2023/10/01 09:45:34;;;;;;;;;;;;;;;22.97;38.01;99673.47;5080686;28;20009;-74
2023/10/01 09:48:04;;;;;;;;;;;;;;;23.04;38.11;99666.91;5080380;28;19924;-73
2023/10/01 09:50:39;;;;;;;;;;;;;;;23.09;37.92;99666.47;5076632;28;19924;-72
2023/10/01 09:53:11;;;;;;;;;;;;;;;23.27;37.53;99669.22;5078349;28;19920;-71
2023/10/01 09:55:47;;;;;;;;;;;;;;;23.36;37.03;99674.50;5073487;28;19974;-73
2023/10/01 09:58:20;;;;;;;;;;;;;;;23.39;36.20;99668.75;5076479;28;20007;-72
2023/10/01 10:00:46;;;;;;;;;;;;;;;23.49;35.66;99671.94;5082152;28;19924;-72
2023/10/01 10:03:12;;;;;;;;;;;;;;;23.64;35.88;99669.78;5092239;28;19912;-70
2023/10/01 10:05:40;;;;;;;;;;;;;;;23.78;35.47;99661.09;5071765;28;19993;-70
2023/10/01 10:08:26;;;;;;;;;;;;;;;23.95;35.23;99661.34;5071062;28;19920;-71
2023/10/01 10:10:55;;;;;;;;;;;;;;;24.08;35.17;99658.81;5068780;28;19916;-71
2023/10/01 10:13:36;;;;;;;;;;;;;;;24.07;34.94;99668.63;5090523;28;19922;-72
2023/10/01 10:19:23;;;;;;;;;;;;;;;24.49;36.94;99660.81;5073450;28;20401;-71
2023/10/01 10:24:29;;;;;;;;;;;;;;;24.59;36.19;99653.34;5072306;28;20382;-70
2023/10/01 10:27:00;;;;;;;;;;;;;;;24.51;36.18;99643.25;5085307;28;20352;-68
2023/10/01 10:30:14;;;;;;;;;;;;;;;24.51;36.23;99648.97;5087143;28;19916;-68
2023/10/01 10:32:44;;;;;;;;;;;;;;;24.54;36.05;99643.19;5085319;28;19917;-69
2023/10/01 10:35:15;;;;;;;;;;;;;;;24.65;35.02;99639.41;5077204;28;19983;-69
2023/10/01 10:37:56;;;;;;;;;;;;;;;24.66;35.27;99635.28;5085377;28;19959;-69
2023/10/01 10:40:22;;;;;;;;;;;;;;;25.09;34.43;99633.91;5085291;28;19916;-69
2023/10/01 10:42:57;;;;;;;;;;;;;;;25.13;32.45;99628.94;5090482;28;19916;-69
2023/10/01 10:45:50;;;;;;;;;;;;;;;25.19;33.18;99626.41;5091897;28;19919;-69
2023/10/01 10:48:21;;;;;;;;;;;;;;;25.27;32.30;99622.19;5083665;28;19920;-68
2023/10/01 10:50:48;;;;;;;;;;;;;;;25.67;32.14;99626.50;5087484;28;19923;-68
2023/10/01 10:53:19;;;;;;;;;;;;;;;25.77;31.21;99608.31;5086534;28;20003;-69
2023/10/01 10:56:02;;;;;;;;;;;;;;;25.91;31.42;99608.03;5086868;28;20394;-69
2023/10/01 10:58:38;;;;;;;;;;;;;;;26.22;31.26;99609.94;5078183;28;19920;-69
2023/10/01 11:01:16;;;;;;;;;;;;;;;26.29;31.45;99601.22;5084540;28;20006;-70
2023/10/01 11:03:49;;;;;;;;;;;;;;;26.67;30.74;99597.16;5080470;28;19916;-68
2023/10/01 11:06:20;;;;;;;;;;;;;;;26.53;29.86;99594.59;5098219;28;20088;-71
2023/10/01 11:08:50;;;;;;;;;;;;;;;26.30;29.98;99599.97;5079819;28;19999;-69
2023/10/01 11:11:39;;;;;;;;;;;;;;;26.25;30.95;99596.81;5075857;28;19920;-69
2023/10/01 11:14:11;;;;;;;;;;;;;;;26.24;30.78;99598.06;5076129;28;19995;-69
2023/10/01 11:16:40;;;;;;;;;;;;;;;26.42;30.72;99589.09;5071023;28;20310;-69
2023/10/01 11:19:12;;;;;;;;;;;;;;;26.15;30.29;99590.81;5071859;28;19959;-73
2023/10/01 11:21:44;;;;;;;;;;;;;;;26.07;30.53;99592.22;5076641;28;20002;-71
2023/10/01 11:24:12;;;;;;;;;;;;;;;26.51;29.91;99585.63;5079042;28;20717;-70
2023/10/01 11:26:59;;;;;;;;;;;;;;;26.93;29.10;99574.47;5086384;28;19970;-70
2023/10/01 11:29:24;;;;;;;;;;;;;;;26.82;28.83;99576.75;5106228;28;20390;-70
2023/10/01 11:31:50;;;;;;;;;;;;;;;26.75;29.31;99575.66;5101231;28;19911;-70
2023/10/01 11:34:26;;;;;;;;;;;;;;;27.07;29.76;99578.25;5080682;28;19912;-70
2023/10/01 11:36:56;;;;;;;;;;;;;;;27.04;29.20;99565.59;5082601;28;20337;-70
2023/10/01 11:39:49;;;;;;;;;;;;;;;27.51;29.18;99563.63;5086405;28;19979;-70
2023/10/01 11:42:25;;;;;;;;;;;;;;;27.49;28.19;99569.03;5087802;28;19916;-70
2023/10/01 11:44:52;;;;;;;;;;;;;;;27.36;28.87;99563.19;5090764;28;19912;-70
2023/10/01 11:47:34;;;;;;;;;;;;;;;27.54;28.37;99557.84;5088671;28;20311;-70
2023/10/01 11:50:08;;;;;;;;;;;;;;;27.92;27.94;99558.47;5081680;28;20508;-70
2023/10/01 11:52:35;;;;;;;;;;;;;;;28.01;27.80;99552.91;5084394;28;19919;-70
2023/10/01 11:55:16;;;;;;;;;;;;;;;28.02;27.67;99549.53;5085672;28;19967;-70
2023/10/01 11:57:51;;;;;;;;;;;;;;;28.40;28.51;99538.63;5084387;28;19912;-70
2023/10/01 12:00:19;;;;;;;;;;;;;;;28.62;27.40;99541.69;5088403;28;19920;-70
2023/10/01 12:02:44;;;;;;;;;;;;;;;28.72;28.09;99540.53;5080741;28;19917;-70
2023/10/01 12:05:13;;;;;;;;;;;;;;;28.54;27.02;99546.03;5091751;28;20064;-70
2023/10/01 12:07:43;;;;;;;;;;;;;;;28.69;27.14;99537.78;5073357;28;19928;-70
2023/10/01 12:10:31;;;;;;;;;;;;;;;28.72;27.14;99536.84;5075428;28;19935;-70
2023/10/01 12:12:54;;;;;;;;;;;;;;;28.12;27.59;99532.44;5074653;28;19955;-70
2023/10/01 12:15:36;;;;;;;;;;;;;;;28.36;27.44;99533.03;5079891;28;19959;-70
2023/10/01 12:18:13;;;;;;;;;;;;;;;28.20;27.26;99528.16;5080341;28;19916;-70
2023/10/01 12:20:58;;;;;;;;;;;;;;;27.85;28.33;99527.88;5084521;28;19969;-71
2023/10/01 12:23:26;;;;;;;;;;;;;;;27.85;27.78;99519.25;5084584;28;20318;-70
2023/10/01 12:26:32;;;;;;;;;;;;;;;27.66;27.62;99523.88;5087736;28;20405;-70
2023/10/01 12:31:48;;;;;;;;;;;;;;;27.67;27.63;99516.88;5063999;28;20058;-70
2023/10/01 12:34:14;;;;;;;;;;;;;;;27.58;28.22;99514.66;5080911;28;19916;-70
2023/10/01 12:36:44;;;;;;;;;;;;;;;27.51;28.28;99509.88;5086470;28;19920;-70
2023/10/01 12:41:47;;;;;;;;;;;;;;;26.99;28.53;99505.88;5074746;28;19924;-71
2023/10/01 12:44:32;;;;;;;;;;;;;;;26.61;29.36;99495.69;5076980;28;19974;-72
2023/10/01 12:47:01;;;;;;;;;;;;;;;26.66;29.57;99491.47;5081989;28;19920;-68
2023/10/01 12:49:27;;;;;;;;;;;;;;;26.82;29.17;99494.34;5082073;28;20358;-70
2023/10/01 12:51:56;;;;;;;;;;;;;;;26.45;29.59;99491.53;5088417;28;19920;-71
2023/10/01 12:54:25;;;;;;;;;;;;;;;26.45;29.69;99497.28;5080368;28;19982;-68
2023/10/01 12:57:02;;;;;;;;;;;;;;;26.62;29.59;99485.81;5092832;28;20007;-68
2023/10/01 12:59:41;;;;;;;;;;;;;;;26.75;29.65;99489.59;5089510;28;19916;-69
2023/10/01 13:02:28;;;;;;;;;;;;;;;26.89;29.33;99497.09;5081506;28;19924;-69
2023/10/01 13:07:38;;;;;;;;;;;;;;;27.16;29.19;99490.28;5083162;28;19931;-68
2023/10/01 13:10:06;;;;;;;;;;;;;;;27.28;28.92;99482.19;5081661;28;19916;-68
2023/10/01 13:12:38;;;;;;;;;;;;;;;27.42;28.81;99498.25;5084607;28;20315;-72
2023/10/01 13:15:15;;;;;;;;;;;;;;;27.20;28.40;99493.06;5081667;28;19916;-73
2023/10/01 13:17:43;;;;;;;;;;;;;;;27.17;28.22;99483.28;5081385;28;20065;-70
2023/10/01 13:20:29;;;;;;;;;;;;;;;26.84;28.64;99488.19;5095074;28;20476;-70
2023/10/01 13:23:13;;;;;;;;;;;;;;;26.96;28.73;99478.06;5094794;28;20061;-69
2023/10/01 13:25:46;;;;;;;;;;;;;;;26.89;28.68;99479.06;5091937;28;20055;-69
2023/10/01 13:28:17;;;;;;;;;;;;;;;27.03;28.77;99481.59;5073441;28;20402;-69
2023/10/01 13:33:25;;;;;;;;;;;;;;;27.28;28.86;99477.25;5074672;28;19912;-69
2023/10/01 13:35:57;;;;;;;;;;;;;;;26.99;28.57;99478.00;5074431;28;20307;-69
2023/10/01 13:38:27;;;;;;;;;;;;;;;27.09;29.39;99486.78;5074211;28;19999;-71
2023/10/01 14:10:53;;;;;;;;;;;;;;;25.19;33.36;99484.16;5093907;28;19919;-69
2023/10/01 14:13:29;;;;;;;;;;;;;;;25.22;33.34;99477.56;5093581;28;20019;-69
2023/10/01 14:16:11;;;;;;;;;;;;;;;25.22;32.68;99476.75;5093333;28;19916;-69
2023/10/01 14:18:37;;;;;;;;;;;;;;;25.22;33.12;99480.41;5093858;28;19942;-69
2023/10/01 14:21:12;;;;;;;;;;;;;;;25.14;33.06;99478.13;5093780;28;19956;-69
2023/10/01 14:23:42;;;;;;;;;;;;;;;25.22;32.94;99476.75;5090231;28;19916;-69
2023/10/01 14:26:13;;;;;;;;;;;;;;;25.37;32.32;99469.53;5074200;28;19916;-69
2023/10/01 14:28:40;;;;;;;;;;;;;;;25.35;32.37;99469.16;5073458;28;19924;-69